createdAt,value
2022-10-05T00:01:02.046Z,9.70
2022-10-05T00:03:37.104Z,9.27
2022-10-05T00:06:05.477Z,9.43
2022-10-05T00:08:35.729Z,9.53
2022-10-05T00:11:03.759Z,9.03
2022-10-05T00:13:33.150Z,9.10
2022-10-05T00:16:09.912Z,9.10
2022-10-05T00:18:38.407Z,9.60
2022-10-05T00:21:17.890Z,8.97
2022-10-05T00:23:45.952Z,9.67
2022-10-05T00:26:20.449Z,8.33
2022-10-05T00:28:50.217Z,9.20
2022-10-05T00:31:20.456Z,9.70
2022-10-05T00:33:49.422Z,8.83
2022-10-05T00:36:17.997Z,8.40
2022-10-05T00:38:46.225Z,9.30
2022-10-05T00:41:21.625Z,8.83
2022-10-05T00:44:22.123Z,8.40
2022-10-05T00:46:56.735Z,7.30
2022-10-05T00:49:43.680Z,8.37
2022-10-05T00:52:20.404Z,8.07
2022-10-05T00:54:59.420Z,8.93
2022-10-05T00:57:38.641Z,8.47
2022-10-05T01:00:12.421Z,8.20
2022-10-05T01:02:53.012Z,7.77
2022-10-05T01:05:35.370Z,7.33
2022-10-05T01:08:16.029Z,7.83
2022-10-05T01:10:48.330Z,8.10
2022-10-05T01:13:27.257Z,8.50
2022-10-05T01:16:04.220Z,8.00
2022-10-05T01:18:41.261Z,8.93
2022-10-05T01:21:18.184Z,8.47
2022-10-05T01:24:08.640Z,8.43
2022-10-05T01:27:08.808Z,8.30
2022-10-05T01:29:44.585Z,7.67
2022-10-05T01:32:23.677Z,8.03
2022-10-05T01:34:57.798Z,8.20
2022-10-05T01:37:29.324Z,8.87
2022-10-05T01:40:03.416Z,8.90
2022-10-05T01:42:38.716Z,7.87
2022-10-05T01:45:15.803Z,8.57
2022-10-05T01:47:47.037Z,8.43
2022-10-05T01:50:27.535Z,8.90
2022-10-05T01:53:05.211Z,8.63
2022-10-05T01:55:42.210Z,8.97
2022-10-05T01:58:22.117Z,8.43
2022-10-05T02:01:00.159Z,8.90
2022-10-05T02:03:32.922Z,9.07
2022-10-05T02:06:09.579Z,8.37
2022-10-05T02:08:41.895Z,8.90
2022-10-05T02:11:12.156Z,8.90
2022-10-05T02:13:44.106Z,8.50
2022-10-05T02:16:19.951Z,7.83
2022-10-05T02:18:52.362Z,9.33
2022-10-05T02:21:22.496Z,10.37
2022-10-05T02:23:54.644Z,7.50
2022-10-05T02:26:23.481Z,7.73
2022-10-05T02:28:55.655Z,8.20
2022-10-05T02:31:30.147Z,7.33
2022-10-05T02:34:26.303Z,8.00
2022-10-05T02:37:03.288Z,8.50
2022-10-05T02:39:39.586Z,7.30
2022-10-05T02:42:14.982Z,8.90
2022-10-05T02:44:50.110Z,8.03
2022-10-05T02:47:27.358Z,8.17
2022-10-05T02:50:01.706Z,8.00
2022-10-05T02:52:37.925Z,8.53
2022-10-05T02:55:15.474Z,8.97
2022-10-05T02:57:53.846Z,8.40
2022-10-05T03:00:24.483Z,8.33
2022-10-05T03:03:02.986Z,7.37
2022-10-05T03:05:36.551Z,7.23
2022-10-05T03:08:10.473Z,8.30
2022-10-05T03:10:44.818Z,7.53
2022-10-05T03:13:23.490Z,7.23
2022-10-05T03:16:16.662Z,7.47
2022-10-05T03:18:56.666Z,7.00
2022-10-05T03:21:43.346Z,7.10
2022-10-05T03:24:38.761Z,7.07
2022-10-05T03:27:15.401Z,7.13
2022-10-05T03:29:49.722Z,7.30
2022-10-05T03:32:26.322Z,7.07
2022-10-05T03:35:03.045Z,7.10
2022-10-05T03:37:36.006Z,7.03
2022-10-05T03:40:11.088Z,7.50
2022-10-05T03:43:00.192Z,7.13
2022-10-05T03:45:34.110Z,6.83
2022-10-05T03:48:09.266Z,7.37
2022-10-05T03:50:46.845Z,6.63
2022-10-05T03:53:20.281Z,9.17
2022-10-05T03:55:53.017Z,8.00
2022-10-05T03:58:25.194Z,8.67
2022-10-05T04:00:58.442Z,9.03
2022-10-05T04:03:33.917Z,10.07
2022-10-05T04:06:10.141Z,10.50
2022-10-05T04:08:47.884Z,10.87
2022-10-05T04:11:21.057Z,12.13
2022-10-05T04:13:53.049Z,10.07
2022-10-05T04:16:27.920Z,11.63
2022-10-05T04:19:00.744Z,11.23
2022-10-05T04:21:33.409Z,10.70
2022-10-05T04:24:05.890Z,10.47
2022-10-05T04:26:40.592Z,10.80
2022-10-05T04:29:16.714Z,11.23
2022-10-05T04:31:58.160Z,10.10
2022-10-05T04:34:48.697Z,10.83
2022-10-05T04:37:23.612Z,10.03
2022-10-05T04:40:05.420Z,9.80
2022-10-05T04:42:39.081Z,9.43
2022-10-05T04:45:19.952Z,8.33
2022-10-05T04:48:18.485Z,7.83
2022-10-05T04:50:56.065Z,7.07
2022-10-05T04:53:32.072Z,8.50
2022-10-05T04:56:07.341Z,7.63
2022-10-05T04:58:48.729Z,7.57
2022-10-05T05:01:33.292Z,9.43
2022-10-05T05:04:17.984Z,8.47
2022-10-05T05:06:56.452Z,8.07
2022-10-05T05:10:02.220Z,8.23
2022-10-05T05:12:41.792Z,10.13
2022-10-05T05:15:30.383Z,9.90
2022-10-05T05:18:11.213Z,9.47
2022-10-05T05:20:50.440Z,9.00
2022-10-05T05:23:25.136Z,10.63
2022-10-05T05:26:06.975Z,10.37
2022-10-05T05:28:43.629Z,9.07
2022-10-05T05:31:18.660Z,10.87
2022-10-05T05:33:57.347Z,13.60
2022-10-05T05:36:41.548Z,12.60
2022-10-05T05:39:22.776Z,11.53
2022-10-05T05:42:01.169Z,9.77
2022-10-05T05:44:38.595Z,9.93
2022-10-05T05:47:18.431Z,9.20
2022-10-05T05:50:05.752Z,10.07
2022-10-05T05:52:40.635Z,10.20
2022-10-05T05:55:14.444Z,9.57
2022-10-05T05:57:48.464Z,11.80
2022-10-05T06:00:21.891Z,8.77
2022-10-05T06:02:55.481Z,9.10
2022-10-05T06:05:32.331Z,9.13
2022-10-05T06:08:05.825Z,8.47
2022-10-05T06:10:41.572Z,8.40
2022-10-05T06:13:17.747Z,8.63
2022-10-05T06:15:50.596Z,8.17
2022-10-05T06:18:21.811Z,8.07
2022-10-05T06:20:55.940Z,7.73
2022-10-05T06:23:29.243Z,7.30
2022-10-05T06:26:12.324Z,7.67
2022-10-05T06:28:43.023Z,7.33
2022-10-05T06:31:24.903Z,8.53
2022-10-05T06:33:55.139Z,7.43
2022-10-05T06:36:35.509Z,7.67
2022-10-05T06:39:20.472Z,6.73
2022-10-05T06:42:05.971Z,6.37
2022-10-05T06:44:44.688Z,6.30
2022-10-05T06:47:19.140Z,8.23
2022-10-05T06:49:54.535Z,6.30
2022-10-05T06:52:31.063Z,6.13
2022-10-05T06:55:16.248Z,6.37
2022-10-05T06:57:59.856Z,6.83
2022-10-05T07:00:35.977Z,5.80
2022-10-05T07:03:15.219Z,6.67
2022-10-05T07:05:56.214Z,6.83
2022-10-05T07:08:36.386Z,6.07
2022-10-05T07:11:09.386Z,6.63
2022-10-05T07:13:52.363Z,6.13
2022-10-05T07:16:32.653Z,6.40
2022-10-05T07:19:16.023Z,6.10
2022-10-05T07:21:50.958Z,6.33
2022-10-05T07:24:30.342Z,6.50
2022-10-05T07:27:09.019Z,6.23
2022-10-05T07:29:42.487Z,6.30
2022-10-05T07:32:22.518Z,5.57
2022-10-05T07:34:59.988Z,6.33
2022-10-05T07:37:51.615Z,5.90
2022-10-05T07:40:26.119Z,5.97
2022-10-05T07:43:06.981Z,5.33
2022-10-05T07:45:41.517Z,5.57
2022-10-05T07:48:16.781Z,5.60
2022-10-05T07:50:56.954Z,6.97
2022-10-05T07:53:28.771Z,7.60
2022-10-05T07:56:01.480Z,6.03
2022-10-05T07:58:35.393Z,4.87
2022-10-05T08:01:09.305Z,5.00
2022-10-05T08:03:48.574Z,4.80
2022-10-05T08:06:32.324Z,7.30
2022-10-05T08:09:05.370Z,5.33
2022-10-05T08:11:46.603Z,5.20
2022-10-05T08:14:22.208Z,4.67
2022-10-05T08:16:53.119Z,5.00
2022-10-05T08:19:27.055Z,5.07
2022-10-05T08:22:00.723Z,4.60
2022-10-05T08:24:42.090Z,4.63
2022-10-05T08:27:16.337Z,4.37
2022-10-05T08:29:52.942Z,5.03
2022-10-05T08:32:25.708Z,5.67
2022-10-05T08:35:01.321Z,4.67
2022-10-05T08:37:34.145Z,4.00
2022-10-05T08:40:24.765Z,4.73
2022-10-05T08:43:12.331Z,4.80
2022-10-05T08:46:07.842Z,5.10
2022-10-05T08:49:04.475Z,5.20
2022-10-05T08:52:08.704Z,4.67
2022-10-05T08:54:52.847Z,4.17
2022-10-05T08:57:50.756Z,4.40
2022-10-05T09:00:20.634Z,3.87
2022-10-05T09:03:17.412Z,4.27
2022-10-05T09:06:14.438Z,3.80
2022-10-05T09:09:16.180Z,4.63
2022-10-05T09:11:58.689Z,4.83
2022-10-05T09:14:40.089Z,4.50
2022-10-05T09:17:28.675Z,4.40
2022-10-05T09:20:30.315Z,4.17
2022-10-05T09:23:01.069Z,4.57
2022-10-05T09:25:46.213Z,4.37
2022-10-05T09:28:25.662Z,4.43
2022-10-05T09:31:00.003Z,4.30
2022-10-05T09:34:11.321Z,4.33
2022-10-05T09:37:25.404Z,4.07
2022-10-05T09:40:41.802Z,5.57
2022-10-05T09:43:25.015Z,4.93
2022-10-05T09:46:35.185Z,5.13
2022-10-05T09:49:21.420Z,4.13
2022-10-05T09:52:16.476Z,3.83
2022-10-05T09:55:39.314Z,4.50
2022-10-05T09:58:46.145Z,3.73
2022-10-05T10:01:33.597Z,3.63
2022-10-05T10:04:25.131Z,3.93
2022-10-05T10:07:11.315Z,4.17
2022-10-05T10:09:52.543Z,4.33
2022-10-05T10:12:33.883Z,3.90
2022-10-05T10:15:25.113Z,3.70
2022-10-05T10:18:26.975Z,3.50
2022-10-05T10:21:11.920Z,3.33
2022-10-05T10:23:57.396Z,3.90
2022-10-05T10:26:59.338Z,3.90
2022-10-05T10:29:39.721Z,3.27
2022-10-05T10:32:42.292Z,5.07
2022-10-05T10:35:31.510Z,5.00
2022-10-05T10:38:27.766Z,3.60
2022-10-05T10:41:24.324Z,4.00
2022-10-05T10:44:23.192Z,3.27
2022-10-05T10:47:07.556Z,3.30
2022-10-05T10:49:55.832Z,3.73
2022-10-05T10:52:40.413Z,3.53
2022-10-05T10:55:35.271Z,4.10
2022-10-05T10:58:45.762Z,3.63
2022-10-05T11:01:28.183Z,3.30
2022-10-05T11:04:18.536Z,3.50
2022-10-05T11:07:12.024Z,3.40
2022-10-05T11:10:05.049Z,3.70
2022-10-05T11:13:21.380Z,3.03
2022-10-05T11:16:18.726Z,4.10
2022-10-05T11:19:06.994Z,3.57
2022-10-05T11:21:45.388Z,3.40
2022-10-05T11:24:42.611Z,3.03
2022-10-05T11:27:36.284Z,4.20
2022-10-05T11:30:36.962Z,3.20
2022-10-05T11:34:05.256Z,3.33
2022-10-05T11:37:07.600Z,2.97
2022-10-05T11:39:39.883Z,3.00
2022-10-05T11:42:34.779Z,2.93
2022-10-05T11:45:21.837Z,2.93
2022-10-05T11:48:25.995Z,3.30
2022-10-05T11:51:16.195Z,2.60
2022-10-05T11:53:51.711Z,2.60
2022-10-05T11:56:25.029Z,2.60
2022-10-05T11:58:57.127Z,3.00
2022-10-05T12:01:30.867Z,2.63
2022-10-05T12:04:12.243Z,2.80
2022-10-05T12:07:03.932Z,2.60
2022-10-05T12:10:01.687Z,2.60
2022-10-05T12:12:36.607Z,2.97
2022-10-05T12:15:17.419Z,2.57
2022-10-05T12:17:54.076Z,3.00
2022-10-05T12:20:27.858Z,2.60
2022-10-05T12:23:01.791Z,2.47
2022-10-05T12:25:35.091Z,2.80
2022-10-05T12:28:09.352Z,2.60
2022-10-05T12:30:59.330Z,2.57
2022-10-05T12:33:34.862Z,2.90
2022-10-05T12:36:09.017Z,2.70
2022-10-05T12:38:43.190Z,3.20
2022-10-05T12:41:20.903Z,3.27
2022-10-05T12:43:59.351Z,3.03
2022-10-05T12:46:34.839Z,2.90
2022-10-05T12:49:29.273Z,3.30
2022-10-05T12:51:59.366Z,4.50
2022-10-05T12:54:43.658Z,3.60
2022-10-05T12:57:20.930Z,3.93
2022-10-05T12:59:53.250Z,3.73
2022-10-05T13:02:35.475Z,3.63
2022-10-05T13:05:15.756Z,3.13
2022-10-05T13:08:01.548Z,3.53
2022-10-05T13:10:36.050Z,3.60
2022-10-05T13:13:37.950Z,4.20
2022-10-05T13:16:17.810Z,3.93
2022-10-05T13:19:04.334Z,4.30
2022-10-05T13:22:01.126Z,4.83
2022-10-05T13:24:36.549Z,5.00
2022-10-05T13:27:14.082Z,4.43
2022-10-05T13:29:52.290Z,4.30
2022-10-05T13:32:26.082Z,4.97
2022-10-05T13:35:02.547Z,5.87
2022-10-05T13:37:39.377Z,4.10
2022-10-05T13:40:21.729Z,4.17
2022-10-05T13:42:57.969Z,3.90
2022-10-05T13:45:32.392Z,3.70
2022-10-05T13:48:11.165Z,3.93
2022-10-05T13:50:45.973Z,4.00
2022-10-05T13:53:19.538Z,3.30
2022-10-05T13:55:50.533Z,3.40
2022-10-05T13:58:26.169Z,3.27
2022-10-05T14:00:58.917Z,3.30
2022-10-05T14:03:30.661Z,3.27
2022-10-05T14:06:01.361Z,3.03
2022-10-05T14:08:33.217Z,3.20
2022-10-05T14:11:03.009Z,3.40
2022-10-05T14:13:45.381Z,2.90
2022-10-05T14:16:23.231Z,2.97
2022-10-05T14:18:58.559Z,3.87
2022-10-05T14:21:30.834Z,3.60
2022-10-05T14:24:32.125Z,4.90
2022-10-05T14:27:20.975Z,7.00
2022-10-05T14:29:59.744Z,7.93
2022-10-05T14:32:32.361Z,5.10
2022-10-05T14:35:13.928Z,4.57
2022-10-05T14:37:50.172Z,5.00
2022-10-05T14:40:42.500Z,9.23
2022-10-05T14:43:21.977Z,9.33
2022-10-05T14:45:58.765Z,9.10
2022-10-05T14:48:30.404Z,6.93
2022-10-05T14:51:03.291Z,5.77
2022-10-05T14:53:39.574Z,10.67
2022-10-05T14:56:46.668Z,6.97
2022-10-05T14:59:31.804Z,7.30
2022-10-05T15:02:19.734Z,7.67
2022-10-05T15:04:59.998Z,11.13
2022-10-05T15:07:32.064Z,8.00
2022-10-05T15:10:19.784Z,10.37
2022-10-05T15:12:49.342Z,11.47
2022-10-05T15:15:28.332Z,9.83
2022-10-05T15:18:01.296Z,8.20
2022-10-05T15:20:36.960Z,8.37
2022-10-05T15:23:18.224Z,24.67
2022-10-05T15:25:53.352Z,22.33
2022-10-05T15:28:32.367Z,39.03
2022-10-05T15:31:04.794Z,25.40
2022-10-05T15:33:38.541Z,18.63
2022-10-05T15:36:15.361Z,14.83
2022-10-05T15:38:53.476Z,17.63
2022-10-05T15:41:27.910Z,19.23
2022-10-05T15:44:06.633Z,13.93
2022-10-05T15:46:44.938Z,18.33
2022-10-05T15:49:24.884Z,22.37
2022-10-05T15:52:03.026Z,15.97
2022-10-05T15:54:55.714Z,17.73
2022-10-05T15:57:30.823Z,11.60
2022-10-05T16:00:04.219Z,8.00
2022-10-05T16:02:43.562Z,11.03
2022-10-05T16:05:41.974Z,10.40
2022-10-05T16:08:35.867Z,9.70
2022-10-05T16:11:08.836Z,12.30
2022-10-05T16:13:44.180Z,9.47
2022-10-05T16:16:21.897Z,9.03
2022-10-05T16:18:57.554Z,8.67
2022-10-05T16:21:33.154Z,9.70
2022-10-05T16:24:18.470Z,10.77
2022-10-05T16:26:57.402Z,11.57
2022-10-05T16:29:39.946Z,10.97
2022-10-05T16:32:14.870Z,13.37
2022-10-05T16:34:56.158Z,13.17
2022-10-05T16:37:32.068Z,12.43
2022-10-05T16:40:03.905Z,12.10
2022-10-05T16:42:43.491Z,11.97
2022-10-05T16:45:28.582Z,12.77
2022-10-05T16:48:05.157Z,12.60
2022-10-05T16:50:43.115Z,13.70
2022-10-05T16:53:17.551Z,16.13
2022-10-05T16:55:49.474Z,19.30
2022-10-05T16:58:25.579Z,14.80
2022-10-05T17:01:09.484Z,15.50
2022-10-05T17:03:58.430Z,15.43
2022-10-05T17:06:51.213Z,13.73
2022-10-05T17:09:42.846Z,15.90
2022-10-05T17:12:31.328Z,22.13
2022-10-05T17:15:15.019Z,19.50
2022-10-05T17:17:59.673Z,15.13
2022-10-05T17:20:42.835Z,17.30
2022-10-05T17:23:38.002Z,15.90
2022-10-05T17:26:33.637Z,22.13
2022-10-05T17:29:15.070Z,27.47
2022-10-05T17:32:12.901Z,25.57
2022-10-05T17:35:18.166Z,34.13
2022-10-05T17:38:14.553Z,32.73
2022-10-05T17:40:58.465Z,34.33
2022-10-05T17:43:27.866Z,36.77
2022-10-05T17:46:00.639Z,33.60
2022-10-05T17:48:44.546Z,32.37
2022-10-05T17:51:52.457Z,31.70
2022-10-05T17:54:39.369Z,25.77
2022-10-05T17:57:27.002Z,26.03
2022-10-05T18:00:00.627Z,29.00
2022-10-05T18:02:44.202Z,27.77
2022-10-05T18:05:25.850Z,24.00
2022-10-05T18:08:32.509Z,26.50
2022-10-05T18:11:17.169Z,29.47
2022-10-05T18:13:50.049Z,27.20
2022-10-05T18:16:56.763Z,31.07
2022-10-05T18:19:26.468Z,27.20
2022-10-05T18:22:03.483Z,26.17
2022-10-05T18:24:45.844Z,26.77
2022-10-05T18:27:48.984Z,27.83
2022-10-05T18:30:21.926Z,22.17
2022-10-05T18:33:17.502Z,18.40
2022-10-05T18:35:58.051Z,15.60
2022-10-05T18:38:35.206Z,14.10
2022-10-05T18:41:09.841Z,16.10
2022-10-05T18:43:44.760Z,19.20
2022-10-05T18:46:24.382Z,16.10
2022-10-05T18:49:04.317Z,19.03
2022-10-05T18:51:42.323Z,18.37
2022-10-05T18:54:24.982Z,16.80
2022-10-05T18:56:54.174Z,18.00
2022-10-05T18:59:43.244Z,18.27
2022-10-05T19:02:19.921Z,19.07
2022-10-05T19:05:01.732Z,21.33
2022-10-05T19:07:43.965Z,20.00
2022-10-05T19:10:23.083Z,18.13
2022-10-05T19:13:14.987Z,19.90
2022-10-05T19:15:50.124Z,20.90
2022-10-05T19:18:33.486Z,18.97
2022-10-05T19:21:13.287Z,16.83
2022-10-05T19:24:14.635Z,16.70
2022-10-05T19:27:04.442Z,14.37
2022-10-05T19:29:52.935Z,16.30
2022-10-05T19:32:31.406Z,31.07
2022-10-05T19:35:10.169Z,21.00
2022-10-05T19:37:48.622Z,18.77
2022-10-05T19:40:26.495Z,16.53
2022-10-05T19:43:08.083Z,16.50
2022-10-05T19:45:41.314Z,15.53
2022-10-05T19:48:22.030Z,17.03
2022-10-05T19:50:55.684Z,16.43
2022-10-05T19:53:30.466Z,16.60
2022-10-05T19:56:16.471Z,16.60
2022-10-05T19:58:44.720Z,18.17
2022-10-05T20:01:24.187Z,17.07
2022-10-05T20:03:53.362Z,15.40
2022-10-05T20:06:22.732Z,14.77
2022-10-05T20:08:53.042Z,16.10
2022-10-05T20:11:27.396Z,18.47
2022-10-05T20:14:21.314Z,17.33
2022-10-05T20:17:06.699Z,15.43
2022-10-05T20:20:11.934Z,15.17
2022-10-05T20:22:46.381Z,14.40
2022-10-05T20:25:31.458Z,15.17
2022-10-05T20:28:02.409Z,14.77
2022-10-05T20:30:33.913Z,15.60
2022-10-05T20:33:04.645Z,16.50
2022-10-05T20:35:32.635Z,14.80
2022-10-05T20:38:00.863Z,15.27
2022-10-05T20:40:30.207Z,14.20
2022-10-05T20:43:00.146Z,14.53
2022-10-05T20:45:28.429Z,13.50
2022-10-05T20:47:56.465Z,13.53
2022-10-05T20:50:24.397Z,12.97
2022-10-05T20:52:52.948Z,12.07
2022-10-05T20:55:20.988Z,13.10
2022-10-05T20:57:48.913Z,11.63
2022-10-05T21:00:18.489Z,12.07
2022-10-05T21:02:46.894Z,11.57
2022-10-05T21:05:15.146Z,11.93
2022-10-05T21:07:43.181Z,12.57
2022-10-05T21:10:11.613Z,12.30
2022-10-05T21:12:39.584Z,13.17
2022-10-05T21:15:08.253Z,11.33
2022-10-05T21:17:38.916Z,11.53
2022-10-05T21:20:07.474Z,11.83
2022-10-05T21:22:36.316Z,12.30
2022-10-05T21:25:04.502Z,11.87
2022-10-05T21:27:32.629Z,11.03
2022-10-05T21:30:00.543Z,10.63
2022-10-05T21:32:28.471Z,10.73
2022-10-05T21:34:58.299Z,10.53
2022-10-05T21:37:26.413Z,10.10
2022-10-05T21:39:54.389Z,10.30
2022-10-05T21:42:23.566Z,9.57
2022-10-05T21:44:51.759Z,10.93
2022-10-05T21:47:19.673Z,10.40
2022-10-05T21:49:47.685Z,10.70
2022-10-05T21:52:17.637Z,9.70
2022-10-05T21:54:45.825Z,12.57
2022-10-05T21:57:15.370Z,10.80
2022-10-05T21:59:44.328Z,9.90
2022-10-05T22:02:12.488Z,10.10
2022-10-05T22:04:40.571Z,9.90
2022-10-05T22:07:20.877Z,10.90
2022-10-05T22:09:49.572Z,9.67
2022-10-05T22:12:18.128Z,9.33
2022-10-05T22:14:46.197Z,9.23
2022-10-05T22:17:16.661Z,10.60
2022-10-05T22:19:44.686Z,8.73
2022-10-05T22:22:12.722Z,9.83
2022-10-05T22:24:42.032Z,8.30
2022-10-05T22:27:10.327Z,9.03
2022-10-05T22:29:38.644Z,9.03
2022-10-05T22:32:06.913Z,8.13
2022-10-05T22:34:34.928Z,9.60
2022-10-05T22:37:04.003Z,8.70
2022-10-05T22:39:32.147Z,7.73
2022-10-05T22:42:01.460Z,7.63
2022-10-05T22:44:29.515Z,7.27
2022-10-05T22:46:57.402Z,7.23
2022-10-05T22:49:25.789Z,7.60
2022-10-05T22:51:54.812Z,7.23
2022-10-05T22:54:26.275Z,8.07
2022-10-05T22:56:56.767Z,8.10
2022-10-05T22:59:26.101Z,9.30
2022-10-05T23:01:54.216Z,8.57
2022-10-05T23:04:22.243Z,8.73
2022-10-05T23:06:50.247Z,8.33
2022-10-05T23:09:18.396Z,9.43
2022-10-05T23:11:51.893Z,8.27
2022-10-05T23:14:20.467Z,8.07
2022-10-05T23:16:49.977Z,8.03
2022-10-05T23:19:17.943Z,8.07
2022-10-05T23:21:45.916Z,7.60
2022-10-05T23:24:13.799Z,7.93
2022-10-05T23:26:41.978Z,8.30
2022-10-05T23:29:10.023Z,7.30
2022-10-05T23:31:38.087Z,7.73
2022-10-05T23:34:07.394Z,7.40
2022-10-05T23:36:35.977Z,7.30
2022-10-05T23:39:04.099Z,7.93
2022-10-05T23:41:32.176Z,6.77
2022-10-05T23:44:00.129Z,7.20
2022-10-05T23:46:28.134Z,7.07
2022-10-05T23:48:56.196Z,7.20
2022-10-05T23:51:25.580Z,6.93
2022-10-05T23:53:53.636Z,7.37
2022-10-05T23:56:21.886Z,6.87
2022-10-05T23:58:49.972Z,7.93
